Terminal Aerodrome Forecast
Issued by NWS

Current Version | Previous Version | Text Only | Print | Product List | Glossary On
Versions: 1 2 3 4 5 6 7 8 9 10 11 12 13 14 15 16
770
FTAK31 PAJN 291140
TAFASI
TAF
PASI 291140Z 2912/3012 15006KT P6SM -SHRA SCT022 OVC030
      WS020/13030KT
     FM300000 21010KT P6SM VCSH BKN040 OVC060=

USA.gov is the U.S. government's official web portal to all federal, state and local government web resources and services.